createdAt,value
2022-10-04T00:00:58.685Z,5.76
2022-10-04T00:03:31.088Z,5.59
2022-10-04T00:05:59.821Z,5.32
2022-10-04T00:08:31.046Z,5.25
2022-10-04T00:11:37.845Z,5.21
2022-10-04T00:14:16.485Z,5.29
2022-10-04T00:16:46.559Z,5.31
2022-10-04T00:19:16.074Z,5.42
2022-10-04T00:21:57.609Z,5.45
2022-10-04T00:24:29.438Z,5.44
2022-10-04T00:27:25.337Z,5.42
2022-10-04T00:30:04.478Z,5.33
2022-10-04T00:32:43.174Z,5.27
2022-10-04T00:35:24.877Z,5.21
2022-10-04T00:37:58.099Z,5.16
2022-10-04T00:40:29.547Z,5.14
2022-10-04T00:43:01.293Z,5.13
2022-10-04T00:46:00.172Z,5.19
2022-10-04T00:48:46.947Z,5.22
2022-10-04T00:51:16.268Z,5.15
2022-10-04T00:53:55.600Z,5.05
2022-10-04T00:56:28.972Z,4.98
2022-10-04T00:58:56.673Z,4.94
2022-10-04T01:01:27.057Z,4.87
2022-10-04T01:03:57.536Z,4.81
2022-10-04T01:06:26.472Z,4.71
2022-10-04T01:09:06.107Z,4.67
2022-10-04T01:11:41.849Z,4.62
2022-10-04T01:14:11.556Z,4.63
2022-10-04T01:16:38.519Z,4.59
2022-10-04T01:19:24.521Z,4.51
2022-10-04T01:22:13.613Z,4.48
2022-10-04T01:24:43.060Z,4.45
2022-10-04T01:27:31.167Z,4.41
2022-10-04T01:29:59.022Z,4.41
2022-10-04T01:32:25.982Z,4.40
2022-10-04T01:34:52.760Z,4.40
2022-10-04T01:37:19.533Z,4.40
2022-10-04T01:39:46.857Z,4.38
2022-10-04T01:42:19.958Z,4.31
2022-10-04T01:45:12.820Z,4.21
2022-10-04T01:47:48.657Z,4.27
2022-10-04T01:50:32.225Z,4.26
2022-10-04T01:53:21.539Z,4.29
2022-10-04T01:55:52.171Z,4.24
2022-10-04T01:58:23.838Z,4.25
2022-10-04T02:01:03.330Z,4.19
2022-10-04T02:03:35.822Z,4.11
2022-10-04T02:06:07.981Z,4.07
2022-10-04T02:08:39.495Z,4.03
2022-10-04T02:11:07.086Z,4.00
2022-10-04T02:13:39.771Z,3.99
2022-10-04T02:16:12.086Z,3.91
2022-10-04T02:18:41.816Z,3.99
2022-10-04T02:21:10.220Z,4.08
2022-10-04T02:23:39.484Z,4.04
2022-10-04T02:26:08.245Z,3.98
2022-10-04T02:28:36.777Z,3.89
2022-10-04T02:31:24.206Z,3.81
2022-10-04T02:33:55.563Z,3.73
2022-10-04T02:36:29.680Z,3.71
2022-10-04T02:39:21.236Z,3.72
2022-10-04T02:42:03.085Z,3.72
2022-10-04T02:44:41.445Z,3.71
2022-10-04T02:47:29.414Z,3.67
2022-10-04T02:50:05.772Z,3.65
2022-10-04T02:52:44.153Z,3.64
2022-10-04T02:55:30.113Z,3.60
2022-10-04T02:57:58.524Z,3.64
2022-10-04T03:00:31.509Z,3.65
2022-10-04T03:03:25.179Z,3.67
2022-10-04T03:06:07.951Z,3.63
2022-10-04T03:08:43.419Z,3.67
2022-10-04T03:11:11.675Z,3.63
2022-10-04T03:13:41.786Z,3.60
2022-10-04T03:16:08.655Z,3.60
2022-10-04T03:18:37.390Z,3.59
2022-10-04T03:21:08.272Z,3.62
2022-10-04T03:23:35.789Z,3.67
2022-10-04T03:26:19.841Z,3.73
2022-10-04T03:28:47.114Z,3.83
2022-10-04T03:31:15.901Z,3.82
2022-10-04T03:33:44.012Z,3.63
2022-10-04T03:36:15.140Z,3.51
2022-10-04T03:38:41.837Z,3.41
2022-10-04T03:41:11.704Z,3.45
2022-10-04T03:43:44.500Z,3.54
2022-10-04T03:46:12.884Z,3.57
2022-10-04T03:48:52.179Z,3.52
2022-10-04T03:51:27.738Z,3.45
2022-10-04T03:54:02.550Z,3.44
2022-10-04T03:56:36.629Z,3.48
2022-10-04T03:59:06.670Z,3.45
2022-10-04T04:01:45.459Z,3.38
2022-10-04T04:04:24.503Z,3.39
2022-10-04T04:07:07.319Z,3.42
2022-10-04T04:10:02.943Z,3.47
2022-10-04T04:12:43.936Z,3.49
2022-10-04T04:15:12.569Z,3.54
2022-10-04T04:17:47.337Z,3.54
2022-10-04T04:20:28.721Z,3.53
2022-10-04T04:23:01.109Z,3.50
2022-10-04T04:25:32.145Z,3.48
2022-10-04T04:28:13.991Z,3.44
2022-10-04T04:30:46.457Z,3.35
2022-10-04T04:33:25.364Z,3.19
2022-10-04T04:35:56.184Z,3.07
2022-10-04T04:38:26.441Z,3.03
2022-10-04T04:40:57.462Z,3.00
2022-10-04T04:43:28.245Z,3.00
2022-10-04T04:46:22.284Z,3.04
2022-10-04T04:48:45.212Z,2.99
2022-10-04T04:51:19.679Z,3.09
2022-10-04T04:53:47.827Z,3.17
2022-10-04T04:56:23.455Z,3.21
2022-10-04T04:58:52.706Z,3.34
2022-10-04T05:01:57.857Z,3.38
2022-10-04T05:04:24.930Z,3.46
2022-10-04T05:07:02.389Z,3.51
2022-10-04T05:09:34.676Z,3.57
2022-10-04T05:12:22.809Z,3.57
2022-10-04T05:14:52.535Z,3.63
2022-10-04T05:17:26.611Z,3.69
2022-10-04T05:19:58.026Z,3.69
2022-10-04T05:22:27.032Z,3.74
2022-10-04T05:25:02.904Z,3.85
2022-10-04T05:27:38.149Z,3.89
2022-10-04T05:30:21.864Z,3.86
2022-10-04T05:33:05.509Z,3.93
2022-10-04T05:35:47.995Z,4.00
2022-10-04T05:38:28.284Z,4.18
2022-10-04T05:41:08.145Z,4.26
2022-10-04T05:43:34.872Z,4.37
2022-10-04T05:46:14.070Z,4.49
2022-10-04T05:48:43.588Z,4.63
2022-10-04T05:51:22.256Z,4.82
2022-10-04T05:53:50.064Z,4.94
2022-10-04T05:56:26.045Z,5.05
2022-10-04T05:59:14.161Z,5.17
2022-10-04T06:02:00.671Z,5.21
2022-10-04T06:04:49.140Z,5.30
2022-10-04T06:07:30.465Z,5.39
2022-10-04T06:10:11.419Z,5.43
2022-10-04T06:12:56.355Z,5.44
2022-10-04T06:15:29.067Z,5.52
2022-10-04T06:18:05.553Z,5.63
2022-10-04T06:20:43.067Z,5.69
2022-10-04T06:23:16.561Z,5.74
2022-10-04T06:25:43.392Z,5.80
2022-10-04T06:28:22.070Z,5.93
2022-10-04T06:31:19.510Z,6.04
2022-10-04T06:34:04.645Z,6.15
2022-10-04T06:36:34.249Z,6.26
2022-10-04T06:39:18.381Z,6.47
2022-10-04T06:42:09.829Z,6.69
2022-10-04T06:44:48.784Z,6.85
2022-10-04T06:47:52.978Z,7.07
2022-10-04T06:50:44.305Z,7.12
2022-10-04T06:53:34.824Z,7.30
2022-10-04T06:56:16.413Z,7.29
2022-10-04T06:58:58.819Z,7.29
2022-10-04T07:01:31.789Z,7.32
2022-10-04T07:04:19.644Z,7.40
2022-10-04T07:07:35.543Z,7.51
2022-10-04T07:10:33.713Z,7.58
2022-10-04T07:13:04.912Z,7.59
2022-10-04T07:15:48.579Z,7.77
2022-10-04T07:18:26.091Z,8.12
2022-10-04T07:21:03.256Z,8.35
2022-10-04T07:23:44.635Z,8.31
2022-10-04T07:26:27.075Z,8.63
2022-10-04T07:29:18.533Z,8.70
2022-10-04T07:31:49.560Z,8.90
2022-10-04T07:34:25.965Z,9.00
2022-10-04T07:37:00.769Z,9.09
2022-10-04T07:39:40.194Z,9.17
2022-10-04T07:42:46.859Z,9.59
2022-10-04T07:45:26.828Z,10.01
2022-10-04T07:48:20.473Z,10.10
2022-10-04T07:51:19.021Z,10.36
2022-10-04T07:53:59.602Z,10.81
2022-10-04T07:56:55.695Z,10.98
2022-10-04T07:59:58.266Z,11.15
2022-10-04T08:03:02.627Z,11.30
2022-10-04T08:05:42.801Z,11.61
2022-10-04T08:08:23.369Z,11.63
2022-10-04T08:11:18.225Z,11.50
2022-10-04T08:14:19.364Z,11.88
2022-10-04T08:17:16.678Z,12.12
2022-10-04T08:20:17.243Z,12.24
2022-10-04T08:23:29.338Z,12.39
2022-10-04T08:26:08.087Z,12.70
2022-10-04T08:28:56.293Z,12.94
2022-10-04T08:31:46.290Z,12.85
2022-10-04T08:34:31.819Z,12.94
2022-10-04T08:37:13.240Z,13.09
2022-10-04T08:40:17.813Z,13.45
2022-10-04T08:43:09.567Z,13.65
2022-10-04T08:46:09.936Z,13.74
2022-10-04T08:48:58.033Z,13.97
2022-10-04T08:52:02.772Z,13.94
2022-10-04T08:55:21.336Z,14.18
2022-10-04T08:58:00.724Z,14.59
2022-10-04T09:00:57.072Z,14.73
2022-10-04T09:03:42.852Z,14.86
2022-10-04T09:06:43.550Z,15.34
2022-10-04T09:09:35.034Z,15.72
2022-10-04T09:12:02.325Z,15.72
2022-10-04T09:15:28.323Z,16.04
2022-10-04T09:18:22.652Z,16.07
2022-10-04T09:21:14.588Z,16.48
2022-10-04T09:24:00.240Z,16.72
2022-10-04T09:26:57.747Z,17.25
2022-10-04T09:29:34.914Z,16.88
2022-10-04T09:32:20.380Z,16.78
2022-10-04T09:35:06.522Z,16.93
2022-10-04T09:37:41.051Z,17.67
2022-10-04T09:40:08.378Z,18.26
2022-10-04T09:42:58.269Z,17.85
2022-10-04T09:45:50.573Z,18.50
2022-10-04T09:48:29.830Z,19.32
2022-10-04T09:51:29.593Z,19.75
2022-10-04T09:54:21.521Z,20.11
2022-10-04T09:57:02.284Z,19.92
2022-10-04T09:59:57.471Z,20.04
2022-10-04T10:02:50.865Z,20.50
2022-10-04T10:05:23.636Z,20.56
2022-10-04T10:08:02.665Z,20.53
2022-10-04T10:11:04.013Z,20.78
2022-10-04T10:13:45.927Z,21.39
2022-10-04T10:16:21.584Z,21.52
2022-10-04T10:19:19.510Z,21.64
2022-10-04T10:22:16.674Z,21.15
2022-10-04T10:25:12.917Z,20.83
2022-10-04T10:27:52.475Z,21.12
2022-10-04T10:30:37.952Z,21.07
2022-10-04T10:33:31.192Z,20.25
2022-10-04T10:36:35.370Z,20.42
2022-10-04T10:39:39.412Z,20.96
2022-10-04T10:42:18.233Z,20.91
2022-10-04T10:44:56.176Z,20.21
2022-10-04T10:48:04.734Z,20.13
2022-10-04T10:51:10.693Z,21.01
2022-10-04T10:54:05.349Z,20.83
2022-10-04T10:56:47.555Z,20.59
2022-10-04T10:59:53.139Z,21.20
2022-10-04T11:02:48.253Z,21.34
2022-10-04T11:05:44.337Z,21.01
2022-10-04T11:08:45.125Z,21.18
2022-10-04T11:11:29.569Z,21.36
2022-10-04T11:14:24.169Z,22.06
2022-10-04T11:17:09.705Z,22.53
2022-10-04T11:20:11.245Z,22.82
2022-10-04T11:22:57.556Z,23.35
2022-10-04T11:25:51.627Z,23.97
2022-10-04T11:28:26.628Z,24.33
2022-10-04T11:31:07.316Z,24.07
2022-10-04T11:33:58.773Z,23.39
2022-10-04T11:36:47.352Z,23.34
2022-10-04T11:39:14.354Z,23.31
2022-10-04T11:42:03.404Z,22.97
2022-10-04T11:45:01.121Z,22.20
2022-10-04T11:47:51.122Z,22.16
2022-10-04T11:50:43.404Z,22.11
2022-10-04T11:53:27.264Z,22.36
2022-10-04T11:56:04.776Z,22.45
2022-10-04T11:58:48.714Z,23.00
2022-10-04T12:01:55.049Z,23.35
2022-10-04T12:04:27.689Z,23.15
2022-10-04T12:07:29.313Z,22.19
2022-10-04T12:10:04.810Z,22.82
2022-10-04T12:13:01.739Z,23.20
2022-10-04T12:15:36.183Z,23.44
2022-10-04T12:18:40.600Z,23.86
2022-10-04T12:21:20.895Z,24.23
2022-10-04T12:24:19.132Z,24.19
2022-10-04T12:27:01.154Z,24.05
2022-10-04T12:30:10.507Z,23.98
2022-10-04T12:33:02.919Z,23.53
2022-10-04T12:35:44.118Z,23.23
2022-10-04T12:38:37.421Z,23.78
2022-10-04T12:41:34.408Z,24.13
2022-10-04T12:44:28.437Z,24.47
2022-10-04T12:47:17.356Z,24.78
2022-10-04T12:50:03.109Z,25.11
2022-10-04T12:52:46.155Z,25.20
2022-10-04T12:55:52.825Z,25.08
2022-10-04T12:58:32.536Z,24.52
2022-10-04T13:01:13.801Z,24.11
2022-10-04T13:04:31.587Z,23.41
2022-10-04T13:07:19.421Z,23.17
2022-10-04T13:10:24.298Z,23.39
2022-10-04T13:13:13.081Z,23.01
2022-10-04T13:18:59.480Z,23.42
2022-10-04T13:21:39.708Z,23.45
2022-10-04T13:24:22.244Z,23.22
2022-10-04T13:27:05.446Z,23.10
2022-10-04T13:29:55.670Z,23.07
2022-10-04T13:32:28.937Z,23.37
2022-10-04T13:35:20.720Z,23.38
2022-10-04T13:38:08.907Z,22.71
2022-10-04T13:40:39.948Z,22.49
2022-10-04T13:43:22.772Z,22.49
2022-10-04T13:46:00.645Z,22.75
2022-10-04T13:48:51.123Z,22.24
2022-10-04T13:51:21.494Z,21.86
2022-10-04T13:54:09.929Z,22.37
2022-10-04T13:57:06.258Z,22.68
2022-10-04T13:59:54.684Z,22.87
2022-10-04T14:02:24.939Z,23.42
2022-10-04T14:05:29.567Z,23.86
2022-10-04T14:08:34.072Z,24.08
2022-10-04T14:11:44.363Z,23.49
2022-10-04T14:14:55.546Z,22.77
2022-10-04T14:17:51.964Z,23.14
2022-10-04T14:20:35.271Z,23.11
2022-10-04T14:23:08.628Z,23.30
2022-10-04T14:25:44.176Z,23.65
2022-10-04T14:28:27.168Z,23.61
2022-10-04T14:31:26.105Z,23.58
2022-10-04T14:34:55.826Z,23.48
2022-10-04T14:38:02.001Z,23.56
2022-10-04T14:40:48.442Z,23.63
2022-10-04T14:43:27.599Z,23.78
2022-10-04T14:46:13.835Z,23.88
2022-10-04T14:48:58.636Z,24.11
2022-10-04T14:51:36.044Z,24.35
2022-10-04T14:54:16.667Z,24.16
2022-10-04T14:57:29.153Z,24.04
2022-10-04T15:00:19.943Z,23.88
2022-10-04T15:03:31.767Z,23.56
2022-10-04T15:06:13.995Z,23.50
2022-10-04T15:09:08.717Z,23.42
2022-10-04T15:12:27.095Z,23.54
2022-10-04T15:15:26.547Z,23.50
2022-10-04T15:18:00.291Z,23.49
2022-10-04T15:20:53.272Z,23.20
2022-10-04T15:23:55.146Z,23.17
2022-10-04T15:26:23.160Z,23.08
2022-10-04T15:28:54.443Z,22.98
2022-10-04T15:31:45.810Z,22.86
2022-10-04T15:34:50.547Z,22.95
2022-10-04T15:37:25.687Z,23.13
2022-10-04T15:40:28.311Z,23.27
2022-10-04T15:43:20.188Z,23.42
2022-10-04T15:46:18.779Z,23.73
2022-10-04T15:48:53.180Z,23.93
2022-10-04T15:51:41.567Z,24.05
2022-10-04T15:54:47.232Z,24.13
2022-10-04T15:57:34.958Z,24.03
2022-10-04T16:00:13.881Z,24.00
2022-10-04T16:02:51.573Z,23.94
2022-10-04T16:05:23.467Z,23.72
2022-10-04T16:08:15.543Z,23.33
2022-10-04T16:11:14.104Z,22.91
2022-10-04T16:13:54.706Z,22.51
2022-10-04T16:16:42.070Z,21.99
2022-10-04T16:19:16.331Z,21.18
2022-10-04T16:22:07.980Z,20.33
2022-10-04T16:24:49.951Z,19.55
2022-10-04T16:27:35.865Z,18.97
2022-10-04T16:30:25.691Z,18.41
2022-10-04T16:32:58.500Z,17.98
2022-10-04T16:35:30.201Z,17.64
2022-10-04T16:38:12.279Z,17.32
2022-10-04T16:40:47.840Z,16.96
2022-10-04T16:43:17.317Z,16.65
2022-10-04T16:46:09.943Z,16.28
2022-10-04T16:48:48.480Z,16.00
2022-10-04T16:51:18.055Z,15.73
2022-10-04T16:54:06.101Z,15.46
2022-10-04T16:57:00.677Z,15.22
2022-10-04T17:00:00.510Z,14.97
2022-10-04T17:02:42.285Z,14.76
2022-10-04T17:05:30.578Z,14.57
2022-10-04T17:07:57.451Z,14.38
2022-10-04T17:10:34.925Z,14.15
2022-10-04T17:13:27.173Z,13.99
2022-10-04T17:16:22.178Z,13.79
2022-10-04T17:19:11.829Z,13.53
2022-10-04T17:22:05.886Z,13.27
2022-10-04T17:24:44.573Z,13.04
2022-10-04T17:27:47.253Z,12.87
2022-10-04T17:30:39.230Z,12.69
2022-10-04T17:33:35.072Z,12.52
2022-10-04T17:36:26.365Z,12.42
2022-10-04T17:39:11.331Z,12.38
2022-10-04T17:41:49.948Z,12.35
2022-10-04T17:44:37.130Z,12.36
2022-10-04T17:47:23.778Z,12.35
2022-10-04T17:50:24.071Z,12.34
2022-10-04T17:53:18.338Z,12.29
2022-10-04T17:56:00.673Z,12.22
2022-10-04T17:58:43.601Z,12.18
2022-10-04T18:01:14.453Z,12.12
2022-10-04T18:03:54.705Z,12.07
2022-10-04T18:06:49.318Z,12.02
2022-10-04T18:09:51.215Z,11.98
2022-10-04T18:12:55.367Z,11.91
2022-10-04T18:15:38.373Z,11.80
2022-10-04T18:18:11.257Z,11.68
2022-10-04T18:20:46.208Z,11.57
2022-10-04T18:23:25.416Z,11.47
2022-10-04T18:25:57.605Z,11.36
2022-10-04T18:28:25.166Z,11.28
2022-10-04T18:30:59.233Z,11.18
2022-10-04T18:33:37.300Z,11.10
2022-10-04T18:36:28.140Z,11.05
2022-10-04T18:39:20.078Z,11.00
2022-10-04T18:42:20.731Z,10.97
2022-10-04T18:44:58.970Z,10.91
2022-10-04T18:47:37.117Z,10.83
2022-10-04T18:50:32.204Z,10.73
2022-10-04T18:53:21.459Z,10.61
2022-10-04T18:56:00.078Z,10.49
2022-10-04T18:59:03.561Z,10.37
2022-10-04T19:02:04.835Z,10.22
2022-10-04T19:05:05.320Z,10.12
2022-10-04T19:07:56.896Z,10.01
2022-10-04T19:10:42.248Z,9.89
2022-10-04T19:13:43.721Z,9.79
2022-10-04T19:16:45.476Z,9.69
2022-10-04T19:19:46.146Z,9.61
2022-10-04T19:22:29.037Z,9.53
2022-10-04T19:25:13.761Z,9.45
2022-10-04T19:27:51.701Z,9.37
2022-10-04T19:30:25.327Z,9.30
2022-10-04T19:33:00.520Z,9.23
2022-10-04T19:35:42.302Z,9.16
2022-10-04T19:38:29.484Z,9.09
2022-10-04T19:41:18.996Z,9.06
2022-10-04T19:43:48.697Z,9.04
2022-10-04T19:46:39.422Z,9.03
2022-10-04T19:49:20.608Z,9.02
2022-10-04T19:51:55.332Z,8.99
2022-10-04T19:54:32.369Z,8.94
2022-10-04T19:57:03.284Z,8.90
2022-10-04T19:59:40.691Z,8.80
2022-10-04T20:02:12.315Z,8.72
2022-10-04T20:04:40.099Z,8.64
2022-10-04T20:07:18.620Z,8.61
2022-10-04T20:09:52.884Z,8.57
2022-10-04T20:12:36.211Z,8.50
2022-10-04T20:15:26.624Z,8.53
2022-10-04T20:17:54.921Z,8.45
2022-10-04T20:20:42.611Z,8.28
2022-10-04T20:23:11.952Z,8.25
2022-10-04T20:25:45.528Z,8.29
2022-10-04T20:28:27.591Z,8.27
2022-10-04T20:30:57.372Z,8.28
2022-10-04T20:33:33.069Z,8.30
2022-10-04T20:36:31.878Z,8.25
2022-10-04T20:39:04.949Z,8.16
2022-10-04T20:41:51.544Z,8.07
2022-10-04T20:44:41.241Z,8.01
2022-10-04T20:47:38.102Z,7.90
2022-10-04T20:50:11.893Z,7.82
2022-10-04T20:52:45.313Z,7.70
2022-10-04T20:55:28.478Z,7.65
2022-10-04T20:58:03.663Z,7.61
2022-10-04T21:00:33.969Z,7.58
2022-10-04T21:03:15.448Z,7.48
2022-10-04T21:05:42.346Z,7.39
2022-10-04T21:08:15.415Z,7.33
2022-10-04T21:11:03.279Z,7.28
2022-10-04T21:13:59.124Z,7.23
2022-10-04T21:16:41.336Z,7.19
2022-10-04T21:19:33.456Z,7.15
2022-10-04T21:22:07.927Z,7.12
2022-10-04T21:25:00.842Z,7.15
2022-10-04T21:27:31.968Z,7.16
2022-10-04T21:30:00.096Z,7.17
2022-10-04T21:32:28.395Z,7.25
2022-10-04T21:34:55.140Z,7.29
2022-10-04T21:37:22.056Z,7.20
2022-10-04T21:39:48.807Z,7.17
2022-10-04T21:42:16.090Z,7.04
2022-10-04T21:44:42.793Z,6.89
2022-10-04T21:47:10.254Z,6.81
2022-10-04T21:49:37.463Z,6.71
2022-10-04T21:52:04.581Z,6.66
2022-10-04T21:54:31.996Z,6.68
2022-10-04T21:56:59.036Z,6.72
2022-10-04T21:59:25.802Z,6.83
2022-10-04T22:01:52.823Z,6.91
2022-10-04T22:04:19.621Z,6.88
2022-10-04T22:06:46.494Z,6.83
2022-10-04T22:09:13.600Z,6.79
2022-10-04T22:11:40.321Z,6.75
2022-10-04T22:14:07.044Z,6.69
2022-10-04T22:16:33.832Z,6.61
2022-10-04T22:19:00.599Z,6.50
2022-10-04T22:21:27.522Z,6.39
2022-10-04T22:23:54.363Z,6.39
2022-10-04T22:26:22.696Z,6.44
2022-10-04T22:28:51.656Z,6.44
2022-10-04T22:31:26.564Z,6.41
2022-10-04T22:33:53.544Z,6.40
2022-10-04T22:36:27.489Z,6.34
2022-10-04T22:38:59.892Z,6.30
2022-10-04T22:41:33.744Z,6.29
2022-10-04T22:44:15.222Z,6.33
2022-10-04T22:46:45.763Z,6.41
2022-10-04T22:49:16.154Z,6.42
2022-10-04T22:51:45.136Z,6.40
2022-10-04T22:54:13.837Z,6.39
2022-10-04T22:56:41.374Z,6.30
2022-10-04T22:59:13.236Z,6.27
2022-10-04T23:01:40.730Z,6.25
2022-10-04T23:04:20.978Z,6.30
2022-10-04T23:06:48.381Z,6.30
2022-10-04T23:09:15.513Z,6.27
2022-10-04T23:11:42.711Z,6.20
2022-10-04T23:14:09.420Z,6.10
2022-10-04T23:16:37.092Z,6.03
2022-10-04T23:19:12.059Z,5.98
2022-10-04T23:21:40.278Z,5.94
2022-10-04T23:24:25.204Z,5.90
2022-10-04T23:26:58.809Z,5.87
2022-10-04T23:29:29.768Z,5.85
2022-10-04T23:31:57.455Z,5.86
2022-10-04T23:34:35.369Z,5.83
2022-10-04T23:37:03.087Z,5.80
2022-10-04T23:39:34.930Z,5.79
2022-10-04T23:42:10.910Z,5.72
2022-10-04T23:44:38.212Z,5.74
2022-10-04T23:47:21.567Z,5.72
2022-10-04T23:49:51.251Z,5.71
2022-10-04T23:52:39.726Z,5.70
2022-10-04T23:55:29.132Z,5.69
2022-10-04T23:57:56.648Z,5.70
